createdAt,value
2018-04-26T00:02:55.954Z,6.7
2018-04-26T00:07:55.915Z,6.7
2018-04-26T00:12:56.057Z,6.5
2018-04-26T00:17:56.234Z,6.5
2018-04-26T00:22:55.457Z,6.3
2018-04-26T00:27:55.780Z,6.3
2018-04-26T00:32:55.972Z,6.2
2018-04-26T00:37:56.108Z,6.2
2018-04-26T00:42:56.332Z,6
2018-04-26T00:47:55.458Z,6
2018-04-26T00:52:55.603Z,5.9
2018-04-26T00:57:55.762Z,5.9
2018-04-26T01:02:56.013Z,5.8
2018-04-26T01:07:55.828Z,5.8
2018-04-26T01:12:55.991Z,5.7
2018-04-26T01:17:56.315Z,5.7
2018-04-26T01:22:55.542Z,5.6
2018-04-26T01:27:55.758Z,5.6
2018-04-26T01:32:55.900Z,5.6
2018-04-26T01:37:56.068Z,5.6
2018-04-26T01:42:56.188Z,5.5
2018-04-26T01:47:56.340Z,5.5
2018-04-26T01:52:55.459Z,5.5
2018-04-26T01:57:55.568Z,5.5
2018-04-26T02:02:55.776Z,5.7
2018-04-26T02:07:55.556Z,5.7
2018-04-26T02:12:55.705Z,6
2018-04-26T02:17:55.920Z,6
2018-04-26T02:22:56.096Z,6.2
2018-04-26T02:27:56.290Z,6.2
2018-04-26T02:32:55.487Z,6.2
2018-04-26T02:37:55.704Z,6.2
2018-04-26T02:42:55.872Z,6.3
2018-04-26T02:47:56.190Z,6.3
2018-04-26T02:52:56.310Z,6.3
2018-04-26T02:57:56.448Z,6.3
2018-04-26T03:02:56.102Z,6.4
2018-04-26T03:07:56.316Z,6.4
2018-04-26T03:12:56.625Z,6.4
2018-04-26T03:17:55.851Z,6.4
2018-04-26T03:22:55.953Z,6.5
2018-04-26T03:27:56.135Z,6.5
2018-04-26T03:32:56.347Z,6.5
2018-04-26T03:37:56.500Z,6.5
2018-04-26T03:42:55.668Z,6.7
2018-04-26T03:47:55.793Z,6.7
2018-04-26T03:52:55.953Z,6.7
2018-04-26T03:57:56.110Z,6.7
2018-04-26T04:02:56.315Z,6.8
2018-04-26T04:07:56.144Z,6.8
2018-04-26T04:12:56.291Z,6.8
2018-04-26T04:17:56.525Z,6.8
2018-04-26T04:22:55.721Z,6.9
2018-04-26T04:27:56.039Z,6.9
2018-04-26T04:33:01.197Z,6.9
2018-04-26T04:37:55.607Z,6.9
2018-04-26T04:42:55.835Z,6.9
2018-04-26T04:47:56.131Z,6.9
2018-04-26T04:52:55.786Z,7
2018-04-26T04:57:55.959Z,7
2018-04-26T05:02:56.195Z,7
2018-04-26T05:07:56.329Z,7
2018-04-26T05:12:56.506Z,7.1
2018-04-26T05:17:55.723Z,7.1
2018-04-26T05:22:55.832Z,7.2
2018-04-26T05:27:56.116Z,7.2
2018-04-26T05:32:56.359Z,7.2
2018-04-26T05:37:56.438Z,7.2
2018-04-26T05:42:56.735Z,7.3
2018-04-26T05:47:55.896Z,7.3
2018-04-26T05:52:56.050Z,7.4
2018-04-26T05:57:56.292Z,7.4
2018-04-26T06:02:56.763Z,7.5
2018-04-26T06:07:56.200Z,7.5
2018-04-26T06:12:56.394Z,7.6
2018-04-26T06:17:56.503Z,7.6
2018-04-26T06:22:55.748Z,7.7
2018-04-26T06:27:56.096Z,7.7
2018-04-26T06:32:56.437Z,7.9
2018-04-26T06:37:56.731Z,7.9
2018-04-26T06:42:55.894Z,8.1
2018-04-26T06:47:56.130Z,8.1
2018-04-26T06:52:56.434Z,8.2
2018-04-26T06:57:56.652Z,8.2
2018-04-26T07:02:55.946Z,8.4
2018-04-26T07:07:56.638Z,8.4
2018-04-26T07:12:55.804Z,8.6
2018-04-26T07:17:56.064Z,8.6
2018-04-26T07:22:56.235Z,8.8
2018-04-26T07:27:56.398Z,8.8
2018-04-26T07:32:56.662Z,8.9
2018-04-26T07:37:55.809Z,8.9
2018-04-26T07:42:56.007Z,9.1
2018-04-26T07:47:56.189Z,9.1
2018-04-26T07:52:56.280Z,9.6
2018-04-26T07:57:56.491Z,9.6
2018-04-26T08:02:56.697Z,9.4
2018-04-26T08:07:56.377Z,9.4
2018-04-26T08:12:56.529Z,9.5
2018-04-26T08:17:56.739Z,9.5
2018-04-26T08:22:56.835Z,9.9
2018-04-26T08:27:56.081Z,9.9
2018-04-26T08:32:56.252Z,9.9
2018-04-26T08:37:56.478Z,9.9
2018-04-26T08:42:56.769Z,9.8
2018-04-26T08:47:55.934Z,9.8
2018-04-26T08:52:56.187Z,10.2
2018-04-26T08:57:56.406Z,10.2
2018-04-26T09:02:56.628Z,10.7
2018-04-26T09:07:56.079Z,10.7
2018-04-26T09:12:56.266Z,11.7
2018-04-26T09:17:56.371Z,11.7
2018-04-26T09:22:56.601Z,11.5
2018-04-26T09:27:56.742Z,11.5
2018-04-26T09:32:55.914Z,11.1
2018-04-26T09:37:56.038Z,11.1
2018-04-26T09:42:56.205Z,10.4
2018-04-26T09:47:56.298Z,10.4
2018-04-26T09:52:56.628Z,9.8
2018-04-26T09:57:56.834Z,9.8
2018-04-26T10:02:56.047Z,9.6
2018-04-26T10:07:56.001Z,9.6
2018-04-26T10:12:56.154Z,9.3
2018-04-26T10:17:56.307Z,9.3
2018-04-26T10:22:56.475Z,8.8
2018-04-26T10:27:56.736Z,8.8
2018-04-26T10:32:56.059Z,8.2
2018-04-26T10:37:56.254Z,8.2
2018-04-26T10:42:56.399Z,7.8
2018-04-26T10:47:56.581Z,7.8
2018-04-26T10:52:56.789Z,7.7
2018-04-26T10:57:56.916Z,7.7
2018-04-26T11:02:56.174Z,8.7
2018-04-26T11:07:56.036Z,8.7
2018-04-26T11:12:56.287Z,10.1
2018-04-26T11:17:56.529Z,10.1
2018-04-26T11:22:56.656Z,10.2
2018-04-26T11:27:56.845Z,10.2
2018-04-26T11:32:56.328Z,9.9
2018-04-26T11:37:56.529Z,9.9
2018-04-26T11:42:56.852Z,10
2018-04-26T11:47:57.153Z,10
2018-04-26T11:52:56.272Z,9.8
2018-04-26T11:57:56.493Z,9.8
2018-04-26T12:02:56.731Z,9.3
2018-04-26T12:07:56.873Z,9.3
2018-04-26T12:12:56.746Z,9
2018-04-26T12:17:56.935Z,9
2018-04-26T12:22:56.204Z,10.2
2018-04-26T12:27:56.432Z,10.2
2018-04-26T12:32:56.623Z,11.3
2018-04-26T12:37:56.855Z,11.3
2018-04-26T12:42:57.067Z,11.6
2018-04-26T12:47:56.283Z,11.6
2018-04-26T12:52:56.552Z,11.8
2018-04-26T12:57:56.786Z,11.8
2018-04-26T13:02:57.065Z,11.6
2018-04-26T13:07:56.287Z,11.6
2018-04-26T13:12:56.311Z,10.9
2018-04-26T13:17:56.717Z,10.9
2018-04-26T13:22:56.874Z,10
2018-04-26T13:27:57.160Z,10
2018-04-26T13:32:56.435Z,10.1
2018-04-26T13:37:56.797Z,10.1
2018-04-26T13:42:57.152Z,10
2018-04-26T13:47:56.386Z,10
2018-04-26T13:52:56.675Z,9.8
2018-04-26T13:57:56.968Z,9.8
2018-04-26T14:02:57.422Z,9.7
2018-04-26T14:07:56.767Z,9.7
2018-04-26T14:12:56.919Z,9.6
2018-04-26T14:17:57.225Z,9.6
2018-04-26T14:22:56.442Z,9.8
2018-04-26T14:27:56.663Z,9.8
2018-04-26T14:32:56.956Z,10.2
2018-04-26T14:37:57.354Z,10.2
2018-04-26T14:42:56.531Z,10.3
2018-04-26T14:47:56.839Z,10.3
2018-04-26T14:52:57.094Z,10.8
2018-04-26T14:57:57.373Z,10.8
2018-04-26T15:02:56.649Z,11.3
2018-04-26T15:07:57.132Z,11.3
2018-04-26T15:12:57.073Z,11.9
2018-04-26T15:17:56.401Z,11.9
2018-04-26T15:22:56.562Z,11.9
2018-04-26T15:27:56.860Z,11.9
2018-04-26T15:32:57.291Z,12
2018-04-26T15:37:56.476Z,12
2018-04-26T15:42:56.654Z,11.9
2018-04-26T15:47:56.991Z,11.9
2018-04-26T15:52:57.208Z,11.9
2018-04-26T15:57:56.433Z,11.9
2018-04-26T16:02:56.690Z,11.7
2018-04-26T16:07:56.956Z,11.7
2018-04-26T16:12:57.281Z,11.6
2018-04-26T16:17:56.482Z,11.6
2018-04-26T16:22:56.835Z,11.5
2018-04-26T16:27:57.039Z,11.5
2018-04-26T16:32:57.317Z,11.3
2018-04-26T16:37:56.619Z,11.3
2018-04-26T16:42:56.832Z,11.2
2018-04-26T16:47:57.110Z,11.2
2018-04-26T16:52:57.334Z,10.8
2018-04-26T16:57:56.455Z,10.8
2018-04-26T17:02:56.936Z,10.4
2018-04-26T17:07:57.146Z,10.4
2018-04-26T17:12:57.329Z,9.9
2018-04-26T17:17:56.675Z,9.9
2018-04-26T17:22:56.903Z,9.7
2018-04-26T17:27:57.145Z,9.7
2018-04-26T17:32:57.520Z,9.4
2018-04-26T17:37:56.810Z,9.4
2018-04-26T17:42:57.001Z,9.2
2018-04-26T17:47:57.348Z,9.2
2018-04-26T17:52:56.523Z,9
2018-04-26T17:57:56.736Z,9
2018-04-26T18:02:57.019Z,8.8
2018-04-26T18:07:57.204Z,8.8
2018-04-26T18:12:56.869Z,8.8
2018-04-26T18:17:57.200Z,8.8
2018-04-26T18:22:57.419Z,8.7
2018-04-26T18:27:56.636Z,8.7
2018-04-26T18:32:56.921Z,8.7
2018-04-26T18:37:57.112Z,8.7
2018-04-26T18:42:57.375Z,8.6
2018-04-26T18:47:56.590Z,8.6
2018-04-26T18:52:56.829Z,8.6
2018-04-26T18:57:57.197Z,8.6
2018-04-26T19:02:57.509Z,8.4
2018-04-26T19:07:56.786Z,8.4
2018-04-26T19:12:57.564Z,8.4
2018-04-26T19:17:57.001Z,8.4
2018-04-26T19:22:56.958Z,8.3
2018-04-26T19:27:57.183Z,8.3
2018-04-26T19:32:57.448Z,8.2
2018-04-26T19:37:56.765Z,8.2
2018-04-26T19:42:57.049Z,8.1
2018-04-26T19:47:57.337Z,8.1
2018-04-26T19:52:56.659Z,7.9
2018-04-26T19:57:56.892Z,7.9
2018-04-26T20:02:57.149Z,7.8
2018-04-26T20:07:57.610Z,7.8
2018-04-26T20:12:57.669Z,7.7
2018-04-26T20:17:57.024Z,7.7
2018-04-26T20:22:57.202Z,7.4
2018-04-26T20:27:57.494Z,7.4
2018-04-26T20:32:57.790Z,7.3
2018-04-26T20:37:57.049Z,7.3
2018-04-26T20:42:57.305Z,7.1
2018-04-26T20:47:57.534Z,7.1
2018-04-26T20:52:56.799Z,6.9
2018-04-26T20:57:57.004Z,6.9
2018-04-26T21:02:57.495Z,6.7
2018-04-26T21:07:57.252Z,6.7
2018-04-26T21:12:57.370Z,6.6
2018-04-26T21:17:57.083Z,6.6
2018-04-26T21:22:56.909Z,6.5
2018-04-26T21:27:57.597Z,6.5
2018-04-26T21:32:57.512Z,6.3
2018-04-26T21:37:57.267Z,6.3
2018-04-26T21:42:56.951Z,6.2
2018-04-26T21:47:57.718Z,6.2
2018-04-26T21:52:57.418Z,6.2
2018-04-26T21:57:57.432Z,6.2
2018-04-26T22:02:57.317Z,6.1
2018-04-26T22:07:57.047Z,6.1
2018-04-26T22:12:56.972Z,6.2
2018-04-26T22:17:57.549Z,6.2
2018-04-26T22:22:57.363Z,6.1
2018-04-26T22:27:57.194Z,6.1
2018-04-26T22:32:56.919Z,6.1
2018-04-26T22:37:57.757Z,6.1
2018-04-26T22:42:57.561Z,6.1
2018-04-26T22:47:57.298Z,6.1
2018-04-26T22:52:57.780Z,6.1
2018-04-26T22:57:57.069Z,6.1
2018-04-26T23:02:57.349Z,6.1
2018-04-26T23:07:57.794Z,6.1
2018-04-26T23:12:57.070Z,6
2018-04-26T23:17:57.002Z,6
2018-04-26T23:22:57.229Z,5.9
2018-04-26T23:27:57.450Z,5.9
2018-04-26T23:32:57.823Z,5.8
2018-04-26T23:37:57.019Z,5.8
2018-04-26T23:42:57.212Z,5.8
2018-04-26T23:47:57.538Z,5.8
2018-04-26T23:52:57.834Z,5.7
2018-04-26T23:57:57.070Z,5.7
